Time;durP1;ratioP1;P1;durP2;ratioP2;P2;SDS_P1;SDS_P2;PMS_P1;PMS_P2;Temp;Humidity;BMP_temperature;BMP_pressure;BME280_temperature;BME280_humidity;BME280_pressure;Samples;Min_cycle;Max_cycle;Signal;HPM_P1;HPM_P2
2021/11/12 00:13:28;;;;;;;13.85;10.43;;;3.10;99.90;;;;;;5118712;28;20091;-79
2021/11/12 00:15:56;;;;;;;14.75;10.90;;;3.20;99.90;;;;;;5119671;28;20511;-80
2021/11/12 00:18:27;;;;;;;13.35;10.55;;;3.10;99.90;;;;;;5119771;28;20035;-77
2021/11/12 00:20:56;;;;;;;13.20;9.32;;;3.00;99.90;;;;;;5103468;28;20039;-78
2021/11/12 00:23:22;;;;;;;14.20;9.75;;;3.00;99.90;;;;;;5103742;28;20024;-78
2021/11/12 00:25:50;;;;;;;15.55;11.02;;;3.00;99.90;;;;;;5103164;28;20114;-77
2021/11/12 00:28:19;;;;;;;14.82;10.82;;;3.00;99.90;;;;;;5121949;28;20023;-77
2021/11/12 00:36:05;;;;;;;13.48;10.57;;;3.20;99.90;;;;;;5118847;28;20079;-79
2021/11/12 00:38:36;;;;;;;15.80;11.95;;;3.30;99.90;;;;;;5119733;28;20038;-79
2021/11/12 00:43:51;;;;;;;15.80;11.35;;;3.30;99.90;;;;;;5118300;28;20272;-79
2021/11/12 00:51:16;;;;;;;17.20;11.48;;;3.40;99.90;;;;;;5117100;28;20023;-79
2021/11/12 00:53:54;;;;;;;17.67;12.52;;;3.40;99.90;;;;;;5099755;28;20137;-78
2021/11/12 00:56:22;;;;;;;14.88;11.57;;;3.30;99.90;;;;;;5118137;28;20016;-79
2021/11/12 00:58:48;;;;;;;14.35;11.13;;;3.30;99.90;;;;;;5118054;28;20026;-79
2021/11/12 01:01:16;;;;;;;15.15;10.48;;;3.30;99.90;;;;;;5117798;28;20046;-80
2021/11/12 01:03:42;;;;;;;18.35;11.98;;;3.30;99.90;;;;;;5118255;28;20099;-79
2021/11/12 01:06:09;;;;;;;15.88;11.45;;;3.30;99.90;;;;;;5118072;28;20058;-79
2021/11/12 01:08:35;;;;;;;14.70;11.18;;;3.30;99.90;;;;;;5117450;28;20027;-79
2021/11/12 01:11:02;;;;;;;17.67;12.38;;;3.30;99.90;;;;;;5117382;28;20024;-79
2021/11/12 01:13:28;;;;;;;15.40;11.27;;;3.30;99.90;;;;;;5118023;28;20205;-79
2021/11/12 01:15:54;;;;;;;13.70;10.55;;;3.30;99.90;;;;;;5118152;28;20034;-78
2021/11/12 01:18:21;;;;;;;17.42;11.15;;;3.30;99.90;;;;;;5118250;28;20035;-80
2021/11/12 01:20:48;;;;;;;14.43;10.80;;;3.20;99.90;;;;;;5117639;28;20438;-79
2021/11/12 01:23:14;;;;;;;17.17;11.82;;;3.20;99.90;;;;;;5118564;28;20020;-80
2021/11/12 01:25:41;;;;;;;14.05;10.25;;;3.20;99.90;;;;;;5118248;28;20039;-79
2021/11/12 01:28:07;;;;;;;14.25;10.45;;;3.20;99.90;;;;;;5118480;28;20036;-79
2021/11/12 01:30:33;;;;;;;15.65;10.55;;;3.20;99.90;;;;;;5118830;28;20043;-79
2021/11/12 01:32:59;;;;;;;16.88;11.10;;;3.10;99.90;;;;;;5118766;28;20030;-79
2021/11/12 01:35:25;;;;;;;17.60;11.65;;;3.10;99.90;;;;;;5118844;28;20055;-79
2021/11/12 01:37:53;;;;;;;17.08;12.25;;;3.20;99.90;;;;;;5118403;28;20023;-79
2021/11/12 01:40:23;;;;;;;14.45;10.60;;;3.20;99.90;;;;;;5100310;28;20055;-79
2021/11/12 01:43:02;;;;;;;17.63;12.05;;;3.30;99.90;;;;;;5099778;28;20038;-78
2021/11/12 01:50:28;;;;;;;15.57;11.70;;;3.20;99.90;;;;;;5117945;28;20478;-80
2021/11/12 01:53:07;;;;;;;14.57;10.82;;;3.30;99.90;;;;;;5117800;28;20024;-79
2021/11/12 01:55:44;;;;;;;16.02;10.82;;;3.30;99.90;;;;;;5116202;28;20019;-80
2021/11/12 02:00:41;;;;;;;14.00;10.00;;;3.30;99.90;;;;;;5113776;28;20364;-79
2021/11/12 02:03:09;;;;;;;13.75;10.10;;;3.20;99.90;;;;;;5117892;28;20050;-79
2021/11/12 02:05:35;;;;;;;13.30;9.45;;;3.10;99.90;;;;;;5121063;28;20049;-80
2021/11/12 02:08:02;;;;;;;11.63;9.27;;;3.10;99.90;;;;;;5131010;28;20031;-78
2021/11/12 02:10:30;;;;;;;12.48;9.25;;;3.10;99.90;;;;;;5127734;28;20027;-78
2021/11/12 02:13:08;;;;;;;13.55;9.45;;;3.20;99.90;;;;;;5122836;28;20023;-80
2021/11/12 02:15:36;;;;;;;11.52;8.90;;;3.20;99.90;;;;;;5127552;28;20057;-78
2021/11/12 02:18:11;;;;;;;12.73;10.05;;;3.30;99.90;;;;;;5132226;28;20073;-78
2021/11/12 02:20:42;;;;;;;12.05;9.35;;;3.30;99.90;;;;;;5108424;28;20015;-78
2021/11/12 02:23:08;;;;;;;13.25;9.82;;;3.20;99.90;;;;;;5105140;28;20028;-79
2021/11/12 02:25:40;;;;;;;11.90;9.13;;;3.10;99.90;;;;;;5102773;28;20030;-80
2021/11/12 02:28:10;;;;;;;11.93;8.88;;;3.00;99.90;;;;;;5120927;28;20049;-79
2021/11/12 02:30:37;;;;;;;10.82;8.35;;;3.00;99.90;;;;;;5120203;28;20028;-80
2021/11/12 02:33:11;;;;;;;10.13;8.43;;;3.00;99.90;;;;;;5120436;28;20173;-79
2021/11/12 02:35:43;;;;;;;12.70;9.48;;;3.00;99.90;;;;;;5120649;28;20020;-80
2021/11/12 02:38:10;;;;;;;12.82;9.90;;;3.00;99.90;;;;;;5119946;28;20030;-80
2021/11/12 02:40:38;;;;;;;13.40;10.32;;;3.00;99.90;;;;;;5120052;28;20038;-80
2021/11/12 02:43:04;;;;;;;12.82;10.00;;;2.90;99.90;;;;;;5101515;28;20019;-80
2021/11/12 02:45:31;;;;;;;13.30;10.50;;;2.80;99.90;;;;;;5120838;28;20019;-80
2021/11/12 02:47:57;;;;;;;13.85;10.80;;;2.70;99.90;;;;;;5119813;28;20027;-80
2021/11/12 02:50:23;;;;;;;12.05;10.18;;;2.60;99.90;;;;;;5120180;28;20064;-80
2021/11/12 02:52:56;;;;;;;12.30;10.23;;;2.60;99.90;;;;;;5119686;28;20019;-79
2021/11/12 02:55:22;;;;;;;13.18;9.73;;;2.50;99.90;;;;;;5101498;28;20027;-79
2021/11/12 02:57:49;;;;;;;15.32;11.27;;;2.50;99.90;;;;;;5101869;28;20028;-80
2021/11/12 03:00:20;;;;;;;14.45;11.48;;;2.50;99.90;;;;;;5119535;28;20019;-79
2021/11/12 03:02:45;;;;;;;13.10;10.70;;;2.50;99.90;;;;;;5119838;28;20049;-80
2021/11/12 03:05:11;;;;;;;13.65;9.93;;;2.60;99.90;;;;;;5119574;28;20024;-79
2021/11/12 03:07:37;;;;;;;16.83;11.13;;;2.60;99.90;;;;;;5119818;28;20031;-79
2021/11/12 03:10:04;;;;;;;13.13;10.57;;;2.60;99.90;;;;;;5105696;28;20044;-81
2021/11/12 03:12:30;;;;;;;12.90;9.52;;;2.50;99.90;;;;;;5119612;28;20024;-80
2021/11/12 03:14:56;;;;;;;14.95;10.68;;;2.40;99.90;;;;;;5101569;28;20031;-80
2021/11/12 03:17:21;;;;;;;12.80;10.70;;;2.40;99.90;;;;;;5101749;28;20024;-80
2021/11/12 03:19:48;;;;;;;13.00;10.27;;;2.50;99.90;;;;;;5123641;28;20040;-80
2021/11/12 03:22:18;;;;;;;11.55;9.55;;;2.50;99.90;;;;;;5119881;28;20525;-80
2021/11/12 03:24:51;;;;;;;10.98;9.32;;;2.50;99.90;;;;;;5101820;28;20069;-79
2021/11/12 03:27:33;;;;;;;13.52;10.32;;;2.40;99.90;;;;;;5120483;28;20031;-79
2021/11/12 04:17:20;;;;;;;10.07;8.18;;;2.30;99.90;;;;;;5120198;28;20157;-78
2021/11/12 04:20:05;;;;;;;10.52;8.60;;;2.40;99.90;;;;;;5120779;28;20031;-77
2021/11/12 04:30:50;;;;;;;10.27;8.32;;;2.60;99.90;;;;;;5117843;28;20032;-79
2021/11/12 04:41:50;;;;;;;10.13;7.72;;;2.70;99.90;;;;;;5117167;28;20348;-80
2021/11/12 05:44:15;;;;;;;10.05;7.32;;;2.40;99.90;;;;;;5122674;28;20096;-78
2021/11/12 05:46:51;;;;;;;12.20;9.20;;;2.40;99.90;;;;;;5113874;28;20123;-79
2021/11/12 05:52:14;;;;;;;11.05;8.23;;;2.20;99.90;;;;;;5136474;28;20076;-79
2021/11/12 05:57:25;;;;;;;10.38;7.55;;;2.20;99.90;;;;;;5135128;28;20035;-80
2021/11/12 05:59:51;;;;;;;11.07;8.23;;;2.20;99.90;;;;;;5114983;28;20023;-80
2021/11/12 06:02:17;;;;;;;8.95;7.00;;;2.20;99.90;;;;;;5125838;28;20015;-78
2021/11/12 06:04:43;;;;;;;10.40;7.57;;;2.20;99.90;;;;;;5123471;28;20038;-78
2021/11/12 06:07:09;;;;;;;10.52;7.63;;;2.20;99.90;;;;;;5126335;28;20016;-78
2021/11/12 06:09:36;;;;;;;8.75;7.05;;;2.30;99.90;;;;;;5131166;28;20027;-79
2021/11/12 06:12:02;;;;;;;8.63;7.10;;;2.30;99.90;;;;;;5107733;28;20108;-77
2021/11/12 06:14:28;;;;;;;11.00;8.00;;;2.20;99.90;;;;;;5124036;28;20113;-79
2021/11/12 06:16:54;;;;;;;9.20;7.38;;;2.20;99.90;;;;;;5130053;28;20023;-78
2021/11/12 06:19:21;;;;;;;14.43;9.30;;;2.10;99.90;;;;;;5122869;28;20027;-78
2021/11/12 06:21:48;;;;;;;10.32;8.27;;;2.10;99.90;;;;;;5104691;28;20529;-77
2021/11/12 06:24:14;;;;;;;9.27;7.15;;;2.10;99.90;;;;;;5122650;28;20012;-78
2021/11/12 06:26:40;;;;;;;9.38;7.75;;;2.00;99.90;;;;;;5105250;28;20024;-78
2021/11/12 06:29:07;;;;;;;11.35;7.93;;;2.00;99.90;;;;;;5122302;28;20030;-78
2021/11/12 06:31:33;;;;;;;10.02;7.85;;;2.10;99.90;;;;;;5105336;28;20484;-78
2021/11/12 06:33:59;;;;;;;11.55;7.85;;;2.10;99.90;;;;;;5121869;28;20028;-79
2021/11/12 06:36:25;;;;;;;11.75;8.38;;;2.10;99.90;;;;;;5119900;28;20020;-79
2021/11/12 06:38:53;;;;;;;10.07;7.72;;;2.10;99.90;;;;;;5119428;28;20102;-79
2021/11/12 06:41:37;;;;;;;12.05;8.77;;;2.20;99.90;;;;;;5118633;28;20052;-79
2021/11/12 06:44:26;;;;;;;10.95;7.95;;;2.10;99.90;;;;;;5119057;28;20034;-79
2021/11/12 06:49:58;;;;;;;12.60;8.27;;;2.10;99.90;;;;;;5118782;28;20503;-78
2021/11/12 06:52:26;;;;;;;11.75;7.63;;;2.10;99.90;;;;;;5120331;28;20156;-80
2021/11/12 06:54:52;;;;;;;10.02;8.15;;;2.10;99.90;;;;;;5124307;28;20031;-80
2021/11/12 06:57:20;;;;;;;12.98;9.77;;;2.10;99.90;;;;;;5110289;28;20161;-79
2021/11/12 06:59:48;;;;;;;12.10;9.02;;;2.10;99.90;;;;;;5133226;28;20029;-80
2021/11/12 07:02:16;;;;;;;10.40;8.00;;;2.00;99.90;;;;;;5129340;28;20019;-81
2021/11/12 07:04:42;;;;;;;11.20;8.52;;;2.10;99.90;;;;;;5125064;28;20463;-82
2021/11/12 07:07:08;;;;;;;11.85;8.68;;;2.10;99.90;;;;;;5126289;28;20027;-82
2021/11/12 07:09:35;;;;;;;12.18;8.85;;;2.10;99.90;;;;;;5105305;28;20391;-85
2021/11/12 07:12:01;;;;;;;10.20;7.63;;;2.10;99.90;;;;;;5121524;28;20049;-84
2021/11/12 07:14:27;;;;;;;10.68;7.68;;;2.10;99.90;;;;;;5125671;28;20027;-80
2021/11/12 07:16:53;;;;;;;9.98;7.43;;;2.20;99.90;;;;;;5120349;28;20020;-80
2021/11/12 07:19:19;;;;;;;10.68;8.25;;;2.20;99.90;;;;;;5121217;28;20027;-81
2021/11/12 07:21:45;;;;;;;10.35;7.28;;;2.20;99.90;;;;;;5121036;28;20059;-80
2021/11/12 07:24:10;;;;;;;9.95;7.15;;;2.40;99.90;;;;;;5104635;28;20026;-81
2021/11/12 07:26:36;;;;;;;8.60;6.72;;;2.60;99.90;;;;;;5124144;28;20500;-81
2021/11/12 07:29:03;;;;;;;8.68;6.10;;;2.70;99.90;;;;;;5105075;28;20118;-80
2021/11/12 07:31:29;;;;;;;7.60;6.20;;;2.80;99.90;;;;;;5120782;28;20062;-80
2021/11/12 07:33:59;;;;;;;9.43;6.97;;;2.80;99.90;;;;;;5121164;28;20019;-81
2021/11/12 07:36:34;;;;;;;7.50;6.50;;;2.70;99.90;;;;;;5124292;28;20118;-82
2021/11/12 07:39:04;;;;;;;8.43;6.40;;;2.70;99.90;;;;;;5101648;28;20087;-79
2021/11/12 07:44:34;;;;;;;7.63;5.75;;;2.60;99.90;;;;;;5120615;28;20012;-81
2021/11/12 07:47:10;;;;;;;11.75;7.10;;;2.70;99.90;;;;;;5120105;28;20023;-79
2021/11/12 07:49:37;;;;;;;7.18;6.20;;;2.70;99.90;;;;;;5100464;28;20407;-80
2021/11/12 07:52:04;;;;;;;8.75;6.40;;;2.70;99.90;;;;;;5119603;28;20020;-80
2021/11/12 07:54:29;;;;;;;7.45;5.90;;;2.70;99.90;;;;;;5119659;28;20075;-79
2021/11/12 07:56:55;;;;;;;8.13;5.85;;;2.80;99.90;;;;;;5118883;28;20070;-80
2021/11/12 07:59:21;;;;;;;9.73;6.85;;;2.70;99.90;;;;;;5118288;28;20027;-80
2021/11/12 08:01:47;;;;;;;8.45;6.65;;;2.80;99.90;;;;;;5101970;28;20016;-81
2021/11/12 08:04:13;;;;;;;9.40;6.18;;;2.80;99.90;;;;;;5100953;28;20019;-79
2021/11/12 08:06:39;;;;;;;10.98;7.85;;;2.70;99.90;;;;;;5100261;28;20103;-79
2021/11/12 08:09:10;;;;;;;10.95;7.20;;;2.70;99.90;;;;;;5101398;28;20060;-80
2021/11/12 08:14:25;;;;;;;9.50;6.72;;;2.90;99.90;;;;;;5119602;28;20020;-81
2021/11/12 08:22:14;;;;;;;7.80;5.70;;;3.10;99.90;;;;;;5121158;28;20080;-80
2021/11/12 08:30:21;;;;;;;5.88;4.82;;;3.60;99.90;;;;;;5119291;28;20038;-80
2021/11/12 08:32:57;;;;;;;6.88;4.65;;;3.80;99.90;;;;;;5119163;28;20027;-81
2021/11/12 08:45:43;;;;;;;8.85;5.80;;;3.90;99.90;;;;;;5121078;28;20046;-81
2021/11/12 08:48:53;;;;;;;8.27;6.20;;;3.90;99.90;;;;;;5121107;28;20012;-80
2021/11/12 08:51:01;;;;;;;6.63;5.00;;;3.90;99.90;;;;;;5114739;28;20040;-81
2021/11/12 08:53:27;;;;;;;7.70;5.30;;;3.90;99.90;;;;;;5121358;28;20215;-81
2021/11/12 08:55:52;;;;;;;5.00;4.50;;;3.90;99.90;;;;;;5132515;28;20003;-79
2021/11/12 08:58:18;;;;;;;6.00;4.90;;;4.10;99.90;;;;;;5116267;28;20073;-78
2021/11/12 09:00:45;;;;;;;6.35;4.25;;;4.30;99.90;;;;;;5135264;28;20032;-80
2021/11/12 09:03:11;;;;;;;8.10;5.57;;;4.40;99.90;;;;;;5123763;28;20023;-82
2021/11/12 09:05:38;;;;;;;6.80;5.35;;;4.20;99.90;;;;;;5120480;28;20099;-81
2021/11/12 09:08:04;;;;;;;5.50;4.72;;;4.10;99.90;;;;;;5120926;28;20016;-82
2021/11/12 09:10:30;;;;;;;5.93;4.45;;;4.10;99.90;;;;;;5100565;28;20016;-82
2021/11/12 09:13:07;;;;;;;6.10;4.80;;;4.10;99.90;;;;;;5100989;28;20047;-81
2021/11/12 09:15:33;;;;;;;5.35;4.55;;;4.20;99.90;;;;;;5102036;28;20019;-81
2021/11/12 09:18:01;;;;;;;6.43;5.45;;;4.30;99.90;;;;;;5119920;28;20045;-80
2021/11/12 09:20:29;;;;;;;6.53;4.97;;;4.30;99.90;;;;;;5105494;28;20035;-81
2021/11/12 09:22:57;;;;;;;7.40;5.38;;;4.30;99.90;;;;;;5132110;28;20024;-79
2021/11/12 09:25:24;;;;;;;6.78;5.57;;;4.20;99.90;;;;;;5129579;28;20472;-81
2021/11/12 09:27:50;;;;;;;6.15;5.13;;;4.20;99.90;;;;;;5121657;28;20107;-80
2021/11/12 09:30:23;;;;;;;7.78;5.60;;;4.10;99.90;;;;;;5104234;28;20031;-79
2021/11/12 09:32:52;;;;;;;;;;;4.10;99.90;;;;;;5131054;28;20055;-80
2021/11/12 09:35:19;;;;;;;7.55;5.15;;;4.00;99.90;;;;;;5128818;28;20011;-81
2021/11/12 09:37:45;;;;;;;5.82;5.07;;;4.10;99.90;;;;;;5124064;28;20027;-80
2021/11/12 09:40:11;;;;;;;6.82;5.35;;;4.20;99.90;;;;;;5107448;28;20024;-80
2021/11/12 09:42:38;;;;;;;6.30;5.30;;;4.30;99.90;;;;;;5121601;28;20032;-81
2021/11/12 09:45:07;;;;;;;5.60;4.75;;;4.30;99.90;;;;;;5122257;28;20034;-81
2021/11/12 09:47:33;;;;;;;5.95;4.60;;;4.40;99.90;;;;;;5121025;28;20016;-80
2021/11/12 09:50:03;;;;;;;7.57;4.97;;;4.40;99.90;;;;;;5105900;28;20050;-80
2021/11/12 09:52:31;;;;;;;7.43;5.32;;;4.50;99.90;;;;;;5123042;28;20024;-81
2021/11/12 09:54:57;;;;;;;7.72;5.80;;;4.60;99.90;;;;;;5129748;28;20327;-79
2021/11/12 09:57:23;;;;;;;7.90;6.35;;;4.50;99.90;;;;;;5122596;28;20496;-79
2021/11/12 09:59:55;;;;;;;9.60;5.93;;;4.50;99.90;;;;;;5119532;28;20033;-81
2021/11/12 10:02:21;;;;;;;7.07;5.85;;;4.50;99.90;;;;;;5118648;28;20023;-80
2021/11/12 10:04:48;;;;;;;8.00;5.85;;;4.40;99.90;;;;;;5118720;28;20016;-80
2021/11/12 10:07:16;;;;;;;8.00;5.93;;;4.50;99.90;;;;;;5099489;28;20476;-81
2021/11/12 10:09:44;;;;;;;7.57;5.43;;;4.50;99.90;;;;;;5100329;28;20419;-81
2021/11/12 10:12:11;;;;;;;6.15;5.00;;;4.50;99.90;;;;;;5117926;28;20488;-80
2021/11/12 10:14:43;;;;;;;5.53;4.88;;;4.60;99.90;;;;;;5118416;28;20028;-81
2021/11/12 10:17:10;;;;;;;;;;;4.90;99.90;;;;;;5118611;28;20020;-81
2021/11/12 10:19:48;;;;;;;8.07;5.95;;;5.00;99.90;;;;;;5118802;28;19979;-80
2021/11/12 10:22:15;;;;;;;8.32;6.25;;;4.90;99.90;;;;;;5118735;28;20361;-79
2021/11/12 10:24:43;;;;;;;11.57;7.35;;;4.80;99.90;;;;;;5122259;28;20072;-80
2021/11/12 10:27:11;;;;;;;9.20;7.03;;;4.80;99.90;;;;;;5104410;28;20028;-80
2021/11/12 10:29:43;;;;;;;7.90;6.45;;;4.80;99.90;;;;;;5121872;28;20031;-80
2021/11/12 10:32:11;;;;;;;8.38;6.18;;;4.90;99.90;;;;;;5104151;28;20055;-79
2021/11/12 10:34:40;;;;;;;6.80;5.85;;;4.90;99.90;;;;;;5103620;28;20020;-80
2021/11/12 10:37:10;;;;;;;10.88;7.15;;;5.00;99.90;;;;;;5102778;28;20035;-78
2021/11/12 10:39:51;;;;;;;10.50;7.15;;;5.10;99.90;;;;;;5104184;28;20700;-80
2021/11/12 10:42:22;;;;;;;7.88;6.00;;;5.10;99.90;;;;;;5121414;28;20476;-80
2021/11/12 10:44:52;;;;;;;7.55;6.55;;;5.10;99.90;;;;;;5104006;28;20023;-78
2021/11/12 10:47:20;;;;;;;10.85;7.55;;;5.20;99.90;;;;;;5122283;28;20073;-78
2021/11/12 10:49:49;;;;;;;9.20;7.13;;;5.20;99.90;;;;;;5118882;28;20051;-80
2021/11/12 10:52:23;;;;;;;8.90;6.65;;;5.20;99.90;;;;;;5100687;28;20024;-78
2021/11/12 10:55:01;;;;;;;9.65;7.38;;;5.20;99.90;;;;;;5120224;28;20042;-80
2021/11/12 10:57:40;;;;;;;8.50;6.28;;;5.20;99.90;;;;;;5119597;28;20054;-78
2021/11/12 11:00:19;;;;;;;9.45;6.63;;;5.40;99.90;;;;;;5120461;28;20031;-81
2021/11/12 11:02:45;;;;;;;9.55;6.43;;;5.50;99.90;;;;;;5120933;28;20510;-80
2021/11/12 11:05:33;;;;;;;10.93;6.82;;;5.50;99.90;;;;;;5102449;28;20027;-79
2021/11/12 11:08:02;;;;;;;10.75;7.18;;;5.60;99.90;;;;;;5102205;28;20054;-80
2021/11/12 11:10:37;;;;;;;8.90;6.75;;;5.80;99.90;;;;;;5119998;28;20070;-80
2021/11/12 11:13:18;;;;;;;7.50;6.00;;;5.70;99.90;;;;;;5120771;28;20066;-80
2021/11/12 11:15:49;;;;;;;7.32;6.25;;;5.80;99.90;;;;;;5121465;28;20034;-80
2021/11/12 11:18:44;;;;;;;6.90;6.20;;;5.80;99.90;;;;;;5094989;28;20024;-81
2021/11/12 11:21:33;;;;;;;6.10;5.38;;;5.90;99.90;;;;;;5098514;28;20039;-80
2021/11/12 11:24:06;;;;;;;6.70;6.00;;;6.00;99.90;;;;;;5120210;28;20042;-80
2021/11/12 11:26:44;;;;;;;9.15;6.15;;;6.10;99.90;;;;;;5122977;28;20030;-81
2021/11/12 11:29:16;;;;;;;7.50;6.72;;;6.10;99.90;;;;;;5121188;28;20344;-80
2021/11/12 11:31:42;;;;;;;6.43;5.83;;;6.00;99.90;;;;;;5121094;28;20027;-80
2021/11/12 11:34:09;;;;;;;7.57;6.40;;;6.10;99.90;;;;;;5121767;28;20030;-80
2021/11/12 11:36:37;;;;;;;9.13;6.95;;;5.90;99.90;;;;;;5124617;28;20035;-81
2021/11/12 11:41:58;;;;;;;10.77;7.50;;;5.70;99.90;;;;;;5336761;22;20044;-80
2021/11/12 11:44:23;;;;;;;7.20;6.32;;;5.60;99.90;;;;;;5099971;28;20020;-81
2021/11/12 11:46:51;;;;;;;12.02;6.82;;;5.40;99.90;;;;;;5078134;28;20123;-80
2021/11/12 11:49:23;;;;;;;8.80;6.65;;;5.40;99.90;;;;;;5079293;28;20034;-80
2021/11/12 11:51:55;;;;;;;11.88;7.63;;;5.30;99.90;;;;;;5099387;28;20115;-81
2021/11/12 11:54:23;;;;;;;11.45;6.22;;;5.30;99.90;;;;;;5098647;28;20137;-80
2021/11/12 11:56:53;;;;;;;10.80;7.38;;;5.20;99.90;;;;;;5078421;28;20032;-79
2021/11/12 11:59:28;;;;;;;9.73;7.40;;;5.30;99.90;;;;;;5078481;28;20032;-79
2021/11/12 12:02:00;;;;;;;8.25;6.40;;;5.20;99.90;;;;;;5097625;28;20047;-80
2021/11/12 12:04:35;;;;;;;8.63;6.75;;;5.40;99.90;;;;;;5079710;28;20020;-79
2021/11/12 12:07:01;;;;;;;9.30;7.07;;;5.60;99.90;;;;;;5098061;28;20028;-80
2021/11/12 12:09:42;;;;;;;7.57;6.35;;;5.80;99.90;;;;;;5079251;28;20020;-81
2021/11/12 12:12:08;;;;;;;11.45;7.65;;;5.90;99.90;;;;;;5098063;28;20028;-80
2021/11/12 12:14:36;;;;;;;8.35;6.88;;;5.70;99.90;;;;;;5080002;28;20135;-80
2021/11/12 12:17:14;;;;;;;9.63;6.32;;;5.50;99.90;;;;;;5104614;28;20386;-79
2021/11/12 12:20:06;;;;;;;8.75;6.13;;;5.40;99.90;;;;;;5088090;28;20055;-79
2021/11/12 13:25:04;;;;;;;9.18;7.30;;;5.20;99.90;;;;;;5101853;28;20047;-79
2021/11/12 13:27:31;;;;;;;11.63;7.90;;;5.10;99.90;;;;;;5100534;28;20468;-79
2021/11/12 13:29:57;;;;;;;16.50;8.60;;;5.10;99.90;;;;;;5081455;28;20473;-79
2021/11/12 13:32:22;;;;;;;15.63;9.25;;;5.00;99.90;;;;;;5098979;28;20031;-78
2021/11/12 13:34:48;;;;;;;12.07;8.48;;;5.00;99.90;;;;;;5080977;28;20024;-79
2021/11/12 13:37:21;;;;;;;10.48;7.72;;;5.00;99.90;;;;;;5078401;28;20024;-80
2021/11/12 13:40:05;;;;;;;11.35;8.18;;;4.90;99.90;;;;;;5080252;28;20114;-79
2021/11/12 13:42:45;;;;;;;13.48;9.00;;;4.90;99.90;;;;;;5101097;28;20036;-79
2021/11/12 13:45:23;;;;;;;15.02;9.13;;;5.00;99.90;;;;;;5101662;28;20020;-79
2021/11/12 13:48:09;;;;;;;12.52;8.50;;;5.00;99.90;;;;;;5082974;28;20024;-80
2021/11/12 13:50:37;;;;;;;14.50;9.10;;;5.10;99.90;;;;;;5097656;28;20099;-79
2021/11/12 13:53:03;;;;;;;13.32;8.80;;;5.10;99.90;;;;;;5097123;28;20098;-79
2021/11/12 13:55:35;;;;;;;12.50;8.23;;;5.10;99.90;;;;;;5097825;28;20043;-80
2021/11/12 13:58:03;;;;;;;12.65;8.40;;;5.00;99.90;;;;;;5092973;28;20115;-79
2021/11/12 14:00:29;;;;;;;8.35;7.22;;;5.00;99.90;;;;;;5094613;28;20044;-78
2021/11/12 14:03:10;;;;;;;8.52;6.38;;;5.10;99.90;;;;;;5091388;28;20070;-79
2021/11/12 14:05:59;;;;;;;10.98;6.82;;;5.20;99.90;;;;;;5080250;28;20016;-78
2021/11/12 14:08:46;;;;;;;8.23;5.97;;;5.30;99.90;;;;;;5098989;28;20020;-78
2021/11/12 14:11:20;;;;;;;9.18;6.43;;;5.40;99.90;;;;;;5101180;28;20183;-77
2021/11/12 14:13:48;;;;;;;11.30;7.90;;;5.40;99.90;;;;;;5102502;28;20020;-78
2021/11/12 14:16:26;;;;;;;13.88;9.02;;;5.40;99.90;;;;;;5082536;28;20028;-79
2021/11/12 14:21:57;;;;;;;13.98;10.13;;;5.20;99.90;;;;;;5100625;28;20050;-80
2021/11/12 14:24:41;;;;;;;14.90;9.18;;;5.10;99.90;;;;;;5099499;28;20071;-77
2021/11/12 14:27:40;;;;;;;16.02;9.93;;;5.00;99.90;;;;;;5098687;28;20044;-78
2021/11/12 14:36:15;;;;;;;12.73;8.88;;;5.00;99.90;;;;;;5077659;28;20062;-77
2021/11/12 14:38:54;;;;;;;11.80;8.57;;;5.00;99.90;;;;;;5099131;28;20545;-79
2021/11/12 14:41:32;;;;;;;12.20;8.23;;;5.10;99.90;;;;;;5100176;28;20043;-79
2021/11/12 14:52:04;;;;;;;12.88;9.30;;;5.00;99.90;;;;;;5098682;28;20063;-80
2021/11/12 14:54:45;;;;;;;12.77;8.65;;;5.00;99.90;;;;;;5098904;28;20103;-78
2021/11/12 14:57:32;;;;;;;13.00;8.82;;;5.00;99.90;;;;;;5100890;28;20110;-79
2021/11/12 15:00:05;;;;;;;13.50;8.77;;;5.00;99.90;;;;;;5100011;28;20039;-79
2021/11/12 15:02:35;;;;;;;11.90;8.45;;;5.00;99.90;;;;;;5100250;28;20103;-79
2021/11/12 15:05:01;;;;;;;13.95;9.23;;;5.10;99.90;;;;;;5086646;28;20039;-79
2021/11/12 15:07:34;;;;;;;13.10;8.80;;;5.10;99.90;;;;;;5080477;28;20030;-79
2021/11/12 15:10:00;;;;;;;13.20;9.05;;;5.10;99.90;;;;;;5098245;28;20048;-79
2021/11/12 15:12:27;;;;;;;12.30;8.25;;;5.00;99.90;;;;;;5081334;28;20028;-78
2021/11/12 15:14:59;;;;;;;13.95;8.35;;;5.10;99.90;;;;;;5099019;28;20020;-78
2021/11/12 15:17:25;;;;;;;13.10;9.07;;;5.10;99.90;;;;;;5098875;28;20027;-78
2021/11/12 15:19:51;;;;;;;11.35;8.07;;;5.10;99.90;;;;;;5080393;28;20492;-79
2021/11/12 15:25:23;;;;;;;15.13;9.43;;;5.00;99.90;;;;;;5089251;28;20031;-78
2021/11/12 15:30:27;;;;;;;13.20;8.88;;;5.00;99.90;;;;;;5097479;28;20028;-78
2021/11/12 15:33:05;;;;;;;15.00;9.55;;;5.00;99.90;;;;;;5096681;28;20023;-78
2021/11/12 15:35:32;;;;;;;14.93;10.35;;;5.00;99.90;;;;;;5099113;28;20028;-78
2021/11/12 15:38:11;;;;;;;16.63;10.38;;;5.00;99.90;;;;;;5098120;28;20024;-79
2021/11/12 15:40:40;;;;;;;16.42;11.20;;;4.90;99.90;;;;;;5098968;28;20028;-79
2021/11/12 15:56:13;;;;;;;16.77;10.50;;;4.70;99.90;;;;;;5104256;28;20054;-78
2021/11/12 16:06:51;;;;;;;14.30;9.35;;;4.90;99.90;;;;;;5095874;28;20120;-79
2021/11/12 16:14:25;;;;;;;14.50;9.05;;;5.00;99.90;;;;;;5097364;28;20086;-78
2021/11/12 16:17:19;;;;;;;12.15;8.60;;;5.00;99.90;;;;;;5096424;28;20488;-79
2021/11/12 16:22:49;;;;;;;13.50;9.20;;;5.00;99.90;;;;;;5097853;28;20043;-79
2021/11/12 16:25:21;;;;;;;14.63;9.75;;;5.00;99.90;;;;;;5095893;28;20026;-78
2021/11/12 16:27:49;;;;;;;17.60;11.00;;;5.00;99.90;;;;;;5095307;28;20175;-79
2021/11/12 16:30:19;;;;;;;17.85;11.52;;;4.90;99.90;;;;;;5099853;28;20027;-77
2021/11/12 16:32:53;;;;;;;16.80;10.50;;;4.80;99.90;;;;;;5086363;28;20032;-78
2021/11/12 16:35:22;;;;;;;16.58;10.65;;;4.70;99.90;;;;;;5101566;28;20109;-79
2021/11/12 16:37:54;;;;;;;19.70;10.23;;;4.70;99.90;;;;;;5078067;28;20047;-79
2021/11/12 16:40:28;;;;;;;19.67;10.27;;;4.60;99.90;;;;;;5098190;28;20550;-79
2021/11/12 16:43:02;;;;;;;14.63;9.88;;;4.60;99.90;;;;;;5097956;28;20413;-79
2021/11/12 17:04:02;;;;;;;15.20;9.75;;;4.70;99.90;;;;;;5095087;28;20039;-78
2021/11/12 17:12:15;;;;;;;14.60;9.77;;;4.70;99.90;;;;;;5101957;28;20024;-79
2021/11/12 17:17:33;;;;;;;15.23;10.18;;;4.80;99.90;;;;;;5101264;28;20098;-78
2021/11/12 17:45:01;;;;;;;15.63;10.13;;;5.00;99.90;;;;;;5085911;28;20054;-79
2021/11/12 17:47:28;;;;;;;13.70;9.35;;;5.00;99.90;;;;;;5081802;28;20042;-79
2021/11/12 18:21:45;;;;;;;14.40;9.77;;;4.80;99.90;;;;;;5029440;28;20056;-79
2021/11/12 21:47:22;;;;;;;21.10;12.68;;;4.90;99.90;;;;;;5099055;28;20054;-79
2021/11/12 21:49:48;;;;;;;21.23;11.75;;;4.80;99.90;;;;;;5098300;28;20021;-78
2021/11/12 21:52:14;;;;;;;20.45;12.52;;;4.80;99.90;;;;;;5097670;28;20101;-79
2021/11/12 21:54:41;;;;;;;19.20;11.90;;;4.90;99.90;;;;;;5098303;28;20016;-79
2021/11/12 21:57:07;;;;;;;21.20;13.05;;;4.80;99.90;;;;;;5100116;28;20039;-80
2021/11/12 21:59:33;;;;;;;19.27;13.00;;;4.80;99.90;;;;;;5080504;28;20024;-79
2021/11/12 22:01:59;;;;;;;22.80;13.13;;;4.90;99.90;;;;;;5098287;28;20048;-79
2021/11/12 22:04:25;;;;;;;19.10;12.38;;;4.90;99.90;;;;;;5080694;28;20024;-79
2021/11/12 22:06:51;;;;;;;21.77;13.05;;;4.90;99.90;;;;;;5098561;28;20024;-79
2021/11/12 22:09:17;;;;;;;16.95;11.45;;;4.90;99.90;;;;;;5098230;28;20024;-79
2021/11/12 22:11:43;;;;;;;19.75;11.82;;;5.00;99.90;;;;;;5098607;28;20073;-80
2021/11/12 22:14:09;;;;;;;19.02;10.93;;;5.00;99.90;;;;;;5102191;28;20066;-79
2021/11/12 22:16:35;;;;;;;20.52;11.65;;;5.00;99.90;;;;;;5101491;28;20051;-79
2021/11/12 22:19:02;;;;;;;17.33;10.95;;;5.00;99.90;;;;;;5101729;28;20058;-79
2021/11/12 22:21:28;;;;;;;20.27;11.63;;;4.90;99.90;;;;;;5105086;28;20031;-79
2021/11/12 22:23:54;;;;;;;19.48;12.23;;;4.90;99.90;;;;;;5104278;28;20032;-79
2021/11/12 22:26:20;;;;;;;21.67;12.15;;;5.00;99.90;;;;;;5082669;28;20028;-79
2021/11/12 22:28:48;;;;;;;18.45;11.98;;;4.90;99.90;;;;;;5100823;28;20161;-77
2021/11/12 22:31:14;;;;;;;21.92;13.98;;;4.90;99.90;;;;;;5083466;28;20035;-80
2021/11/12 22:33:40;;;;;;;17.00;11.60;;;4.80;99.90;;;;;;5100031;28;20024;-78
2021/11/12 22:36:08;;;;;;;19.15;12.23;;;4.80;99.90;;;;;;5098636;28;20032;-78
2021/11/12 22:38:34;;;;;;;21.10;12.18;;;4.80;99.90;;;;;;5101582;28;20050;-78
2021/11/12 22:41:00;;;;;;;20.50;11.20;;;4.80;99.90;;;;;;5100695;28;20028;-78
2021/11/12 22:43:27;;;;;;;18.25;11.50;;;4.80;99.90;;;;;;5101224;28;20028;-78
2021/11/12 22:45:53;;;;;;;20.10;13.20;;;4.80;99.90;;;;;;5104155;28;20020;-79
2021/11/12 22:48:22;;;;;;;17.88;11.88;;;4.80;99.90;;;;;;5100945;28;20115;-78
2021/11/12 22:50:51;;;;;;;16.95;11.23;;;4.80;99.90;;;;;;5082860;28;20055;-79
2021/11/12 22:53:17;;;;;;;17.08;10.90;;;4.80;99.90;;;;;;5102947;28;20018;-78
2021/11/12 22:55:43;;;;;;;15.88;11.30;;;4.80;99.90;;;;;;5081834;28;20046;-78
2021/11/12 22:58:09;;;;;;;16.65;11.50;;;4.80;99.90;;;;;;5101355;28;20047;-79